sensor_id;sensor_type;location;lat;lon;timestamp;temperature;humidity
2363;DHT22;64265;51.664;7.626;2023-05-07T00:01:45;21.70;73.60
2363;DHT22;64265;51.664;7.626;2023-05-07T00:04:12;21.70;73.50
2363;DHT22;64265;51.664;7.626;2023-05-07T00:06:40;21.70;73.60
2363;DHT22;64265;51.664;7.626;2023-05-07T00:09:07;21.70;73.50
2363;DHT22;64265;51.664;7.626;2023-05-07T00:11:33;21.70;73.60
2363;DHT22;64265;51.664;7.626;2023-05-07T00:14:00;21.70;73.50
2363;DHT22;64265;51.664;7.626;2023-05-07T00:16:27;21.60;73.40
2363;DHT22;64265;51.664;7.626;2023-05-07T00:18:54;21.70;73.40
2363;DHT22;64265;51.664;7.626;2023-05-07T00:21:20;21.70;73.40
2363;DHT22;64265;51.664;7.626;2023-05-07T00:23:48;21.70;73.40
2363;DHT22;64265;51.664;7.626;2023-05-07T00:26:16;21.60;73.30
2363;DHT22;64265;51.664;7.626;2023-05-07T00:28:42;21.60;73.30
2363;DHT22;64265;51.664;7.626;2023-05-07T00:31:09;21.70;73.40
2363;DHT22;64265;51.664;7.626;2023-05-07T00:33:36;21.70;73.40
2363;DHT22;64265;51.664;7.626;2023-05-07T00:36:03;21.60;73.30
2363;DHT22;64265;51.664;7.626;2023-05-07T00:38:29;21.70;73.40
2363;DHT22;64265;51.664;7.626;2023-05-07T00:40:57;21.60;73.30
2363;DHT22;64265;51.664;7.626;2023-05-07T00:43:24;21.60;73.30
2363;DHT22;64265;51.664;7.626;2023-05-07T00:45:51;21.60;73.20
2363;DHT22;64265;51.664;7.626;2023-05-07T00:48:18;21.60;73.20
2363;DHT22;64265;51.664;7.626;2023-05-07T00:50:45;21.60;73.30
2363;DHT22;64265;51.664;7.626;2023-05-07T00:53:12;21.60;73.30
2363;DHT22;64265;51.664;7.626;2023-05-07T00:55:39;21.60;73.30
2363;DHT22;64265;51.664;7.626;2023-05-07T00:58:08;21.60;73.20
2363;DHT22;64265;51.664;7.626;2023-05-07T01:00:35;21.60;73.30
2363;DHT22;64265;51.664;7.626;2023-05-07T01:03:02;21.60;73.30
2363;DHT22;64265;51.664;7.626;2023-05-07T01:05:29;21.60;73.20
2363;DHT22;64265;51.664;7.626;2023-05-07T01:07:57;21.60;74.00
2363;DHT22;64265;51.664;7.626;2023-05-07T01:10:24;21.60;73.20
2363;DHT22;64265;51.664;7.626;2023-05-07T01:12:51;21.60;73.20
2363;DHT22;64265;51.664;7.626;2023-05-07T01:15:21;21.60;73.20
2363;DHT22;64265;51.664;7.626;2023-05-07T01:17:48;21.60;73.20
2363;DHT22;64265;51.664;7.626;2023-05-07T01:20:14;21.60;73.20
2363;DHT22;64265;51.664;7.626;2023-05-07T01:22:43;21.60;73.20
2363;DHT22;64265;51.664;7.626;2023-05-07T01:25:09;21.60;73.20
2363;DHT22;64265;51.664;7.626;2023-05-07T01:27:36;21.60;73.20
2363;DHT22;64265;51.664;7.626;2023-05-07T01:30:03;21.60;73.30
2363;DHT22;64265;51.664;7.626;2023-05-07T01:32:35;21.60;73.30
2363;DHT22;64265;51.664;7.626;2023-05-07T01:35:04;21.50;73.30
2363;DHT22;64265;51.664;7.626;2023-05-07T01:37:32;21.50;73.10
2363;DHT22;64265;51.664;7.626;2023-05-07T01:40:01;21.50;73.10
2363;DHT22;64265;51.664;7.626;2023-05-07T01:42:29;21.50;73.20
2363;DHT22;64265;51.664;7.626;2023-05-07T01:44:56;21.50;73.10
2363;DHT22;64265;51.664;7.626;2023-05-07T01:47:23;21.50;73.10
2363;DHT22;64265;51.664;7.626;2023-05-07T01:49:50;21.50;73.10
2363;DHT22;64265;51.664;7.626;2023-05-07T01:52:17;21.50;73.10
2363;DHT22;64265;51.664;7.626;2023-05-07T01:54:43;21.50;73.20
2363;DHT22;64265;51.664;7.626;2023-05-07T01:57:11;21.50;73.10
2363;DHT22;64265;51.664;7.626;2023-05-07T01:59:38;21.50;73.20
2363;DHT22;64265;51.664;7.626;2023-05-07T02:02:05;21.50;73.10
2363;DHT22;64265;51.664;7.626;2023-05-07T02:04:31;21.50;73.20
2363;DHT22;64265;51.664;7.626;2023-05-07T02:06:58;21.50;73.20
2363;DHT22;64265;51.664;7.626;2023-05-07T02:09:25;21.50;73.10
2363;DHT22;64265;51.664;7.626;2023-05-07T02:11:51;21.50;73.10
2363;DHT22;64265;51.664;7.626;2023-05-07T02:14:19;21.50;73.20
2363;DHT22;64265;51.664;7.626;2023-05-07T02:16:46;21.50;73.20
2363;DHT22;64265;51.664;7.626;2023-05-07T02:19:13;21.40;73.00
2363;DHT22;64265;51.664;7.626;2023-05-07T02:21:39;21.50;73.20
2363;DHT22;64265;51.664;7.626;2023-05-07T02:24:06;21.40;73.00
2363;DHT22;64265;51.664;7.626;2023-05-07T02:26:33;21.50;73.20
2363;DHT22;64265;51.664;7.626;2023-05-07T02:29:00;21.40;72.90
2363;DHT22;64265;51.664;7.626;2023-05-07T02:31:28;21.50;73.10
2363;DHT22;64265;51.664;7.626;2023-05-07T02:33:54;21.40;72.90
2363;DHT22;64265;51.664;7.626;2023-05-07T02:36:21;21.40;73.00
2363;DHT22;64265;51.664;7.626;2023-05-07T02:38:48;21.50;73.20
2363;DHT22;64265;51.664;7.626;2023-05-07T02:41:14;21.40;73.00
2363;DHT22;64265;51.664;7.626;2023-05-07T02:43:41;21.40;73.00
2363;DHT22;64265;51.664;7.626;2023-05-07T02:46:08;21.40;73.00
2363;DHT22;64265;51.664;7.626;2023-05-07T02:48:36;21.40;73.00
2363;DHT22;64265;51.664;7.626;2023-05-07T02:51:04;21.40;73.00
2363;DHT22;64265;51.664;7.626;2023-05-07T02:53:31;21.40;73.00
2363;DHT22;64265;51.664;7.626;2023-05-07T02:55:59;21.40;73.00
2363;DHT22;64265;51.664;7.626;2023-05-07T02:58:26;21.40;73.00
2363;DHT22;64265;51.664;7.626;2023-05-07T03:00:53;21.40;73.00
2363;DHT22;64265;51.664;7.626;2023-05-07T03:03:20;21.40;73.00
2363;DHT22;64265;51.664;7.626;2023-05-07T03:05:49;21.40;73.00
2363;DHT22;64265;51.664;7.626;2023-05-07T03:08:15;21.40;73.00
2363;DHT22;64265;51.664;7.626;2023-05-07T03:10:42;21.40;73.00
2363;DHT22;64265;51.664;7.626;2023-05-07T03:13:09;21.40;73.00
2363;DHT22;64265;51.664;7.626;2023-05-07T03:15:35;21.40;73.00
2363;DHT22;64265;51.664;7.626;2023-05-07T03:18:03;21.40;73.00
2363;DHT22;64265;51.664;7.626;2023-05-07T03:20:29;21.40;73.00
2363;DHT22;64265;51.664;7.626;2023-05-07T03:22:57;21.40;73.10
2363;DHT22;64265;51.664;7.626;2023-05-07T03:25:24;21.40;73.00
2363;DHT22;64265;51.664;7.626;2023-05-07T03:27:51;21.40;73.00
2363;DHT22;64265;51.664;7.626;2023-05-07T03:30:21;21.40;73.00
2363;DHT22;64265;51.664;7.626;2023-05-07T03:32:47;21.40;73.10
2363;DHT22;64265;51.664;7.626;2023-05-07T03:35:14;21.40;73.00
2363;DHT22;64265;51.664;7.626;2023-05-07T03:37:41;21.30;72.90
2363;DHT22;64265;51.664;7.626;2023-05-07T03:40:10;21.40;73.00
2363;DHT22;64265;51.664;7.626;2023-05-07T03:42:37;21.40;73.00
2363;DHT22;64265;51.664;7.626;2023-05-07T03:45:05;21.30;72.90
2363;DHT22;64265;51.664;7.626;2023-05-07T03:47:31;21.30;73.00
2363;DHT22;64265;51.664;7.626;2023-05-07T03:49:58;21.30;72.90
2363;DHT22;64265;51.664;7.626;2023-05-07T03:52:25;21.40;73.10
2363;DHT22;64265;51.664;7.626;2023-05-07T03:54:52;21.30;73.00
2363;DHT22;64265;51.664;7.626;2023-05-07T03:57:20;21.30;73.00
2363;DHT22;64265;51.664;7.626;2023-05-07T03:59:47;21.30;73.00
2363;DHT22;64265;51.664;7.626;2023-05-07T04:02:14;21.30;73.00
2363;DHT22;64265;51.664;7.626;2023-05-07T04:04:40;21.30;73.10
2363;DHT22;64265;51.664;7.626;2023-05-07T04:07:07;21.30;73.00
2363;DHT22;64265;51.664;7.626;2023-05-07T04:09:34;21.30;73.10
2363;DHT22;64265;51.664;7.626;2023-05-07T04:12:01;21.30;73.20
2363;DHT22;64265;51.664;7.626;2023-05-07T04:14:29;21.30;73.20
2363;DHT22;64265;51.664;7.626;2023-05-07T04:16:57;21.30;73.20
2363;DHT22;64265;51.664;7.626;2023-05-07T04:19:24;21.30;73.20
2363;DHT22;64265;51.664;7.626;2023-05-07T04:21:50;21.30;73.20
2363;DHT22;64265;51.664;7.626;2023-05-07T04:24:17;21.30;73.40
2363;DHT22;64265;51.664;7.626;2023-05-07T04:26:44;21.30;73.40
2363;DHT22;64265;51.664;7.626;2023-05-07T04:29:10;21.30;73.30
2363;DHT22;64265;51.664;7.626;2023-05-07T04:31:39;21.30;73.20
2363;DHT22;64265;51.664;7.626;2023-05-07T04:34:05;21.30;73.40
2363;DHT22;64265;51.664;7.626;2023-05-07T04:36:32;21.20;73.30
2363;DHT22;64265;51.664;7.626;2023-05-07T04:38:59;21.30;73.40
2363;DHT22;64265;51.664;7.626;2023-05-07T04:41:26;21.30;73.30
2363;DHT22;64265;51.664;7.626;2023-05-07T04:43:53;21.30;73.30
2363;DHT22;64265;51.664;7.626;2023-05-07T04:46:20;21.20;73.20
2363;DHT22;64265;51.664;7.626;2023-05-07T04:48:47;21.20;73.40
2363;DHT22;64265;51.664;7.626;2023-05-07T04:51:14;21.30;73.40
2363;DHT22;64265;51.664;7.626;2023-05-07T04:53:41;21.30;73.40
2363;DHT22;64265;51.664;7.626;2023-05-07T04:56:08;21.30;73.50
2363;DHT22;64265;51.664;7.626;2023-05-07T04:58:35;21.20;73.40
2363;DHT22;64265;51.664;7.626;2023-05-07T05:01:02;21.20;73.40
2363;DHT22;64265;51.664;7.626;2023-05-07T05:03:29;21.20;74.10
2363;DHT22;64265;51.664;7.626;2023-05-07T05:05:57;21.20;74.20
2363;DHT22;64265;51.664;7.626;2023-05-07T05:08:24;21.20;73.40
2363;DHT22;64265;51.664;7.626;2023-05-07T05:10:52;21.20;73.40
2363;DHT22;64265;51.664;7.626;2023-05-07T05:13:18;21.20;73.40
2363;DHT22;64265;51.664;7.626;2023-05-07T05:15:45;21.20;73.50
2363;DHT22;64265;51.664;7.626;2023-05-07T05:18:12;21.20;73.40
2363;DHT22;64265;51.664;7.626;2023-05-07T05:20:39;21.20;73.40
2363;DHT22;64265;51.664;7.626;2023-05-07T05:23:08;21.20;73.20
2363;DHT22;64265;51.664;7.626;2023-05-07T05:25:34;21.20;73.20
2363;DHT22;64265;51.664;7.626;2023-05-07T05:28:02;21.30;73.20
2363;DHT22;64265;51.664;7.626;2023-05-07T05:30:29;21.30;73.30
2363;DHT22;64265;51.664;7.626;2023-05-07T05:32:56;21.30;73.40
2363;DHT22;64265;51.664;7.626;2023-05-07T05:35:22;21.30;73.30
2363;DHT22;64265;51.664;7.626;2023-05-07T05:37:49;21.40;73.40
2363;DHT22;64265;51.664;7.626;2023-05-07T05:40:17;21.40;73.40
2363;DHT22;64265;51.664;7.626;2023-05-07T05:42:44;21.40;73.20
2363;DHT22;64265;51.664;7.626;2023-05-07T05:45:10;21.40;73.30
2363;DHT22;64265;51.664;7.626;2023-05-07T05:47:37;21.40;73.20
2363;DHT22;64265;51.664;7.626;2023-05-07T05:50:05;21.40;73.10
2363;DHT22;64265;51.664;7.626;2023-05-07T05:52:32;21.40;73.20
2363;DHT22;64265;51.664;7.626;2023-05-07T05:54:59;21.50;73.30
2363;DHT22;64265;51.664;7.626;2023-05-07T05:57:27;21.50;73.40
2363;DHT22;64265;51.664;7.626;2023-05-07T05:59:54;21.50;73.30
2363;DHT22;64265;51.664;7.626;2023-05-07T06:02:20;21.50;73.30
2363;DHT22;64265;51.664;7.626;2023-05-07T06:04:47;21.60;73.40
2363;DHT22;64265;51.664;7.626;2023-05-07T06:07:14;21.60;73.40
2363;DHT22;64265;51.664;7.626;2023-05-07T06:09:41;21.60;73.30
2363;DHT22;64265;51.664;7.626;2023-05-07T06:12:07;21.60;73.40
2363;DHT22;64265;51.664;7.626;2023-05-07T06:14:35;21.70;73.40
2363;DHT22;64265;51.664;7.626;2023-05-07T06:17:02;21.70;73.30
2363;DHT22;64265;51.664;7.626;2023-05-07T06:19:29;21.70;73.30
2363;DHT22;64265;51.664;7.626;2023-05-07T06:21:56;21.80;73.40
2363;DHT22;64265;51.664;7.626;2023-05-07T06:24:23;21.80;73.20
2363;DHT22;64265;51.664;7.626;2023-05-07T06:26:50;21.80;73.20
2363;DHT22;64265;51.664;7.626;2023-05-07T06:29:17;21.80;73.10
2363;DHT22;64265;51.664;7.626;2023-05-07T06:31:45;21.80;73.10
2363;DHT22;64265;51.664;7.626;2023-05-07T06:34:11;21.80;73.10
2363;DHT22;64265;51.664;7.626;2023-05-07T06:36:39;21.80;73.80
2363;DHT22;64265;51.664;7.626;2023-05-07T06:39:06;21.80;73.00
2363;DHT22;64265;51.664;7.626;2023-05-07T06:41:33;21.90;73.10
2363;DHT22;64265;51.664;7.626;2023-05-07T06:44:00;21.80;72.90
2363;DHT22;64265;51.664;7.626;2023-05-07T06:46:27;21.80;72.90
2363;DHT22;64265;51.664;7.626;2023-05-07T06:48:55;21.90;73.00
2363;DHT22;64265;51.664;7.626;2023-05-07T06:51:22;21.80;72.90
2363;DHT22;64265;51.664;7.626;2023-05-07T06:53:49;21.90;73.00
2363;DHT22;64265;51.664;7.626;2023-05-07T06:56:16;21.80;72.80
2363;DHT22;64265;51.664;7.626;2023-05-07T06:58:42;21.80;72.80
2363;DHT22;64265;51.664;7.626;2023-05-07T07:01:09;21.80;72.80
2363;DHT22;64265;51.664;7.626;2023-05-07T07:03:35;21.80;72.70
2363;DHT22;64265;51.664;7.626;2023-05-07T07:06:04;21.80;72.90
2363;DHT22;64265;51.664;7.626;2023-05-07T07:08:30;21.80;73.10
2363;DHT22;64265;51.664;7.626;2023-05-07T07:10:57;21.80;73.00
2363;DHT22;64265;51.664;7.626;2023-05-07T07:13:24;21.80;73.00
2363;DHT22;64265;51.664;7.626;2023-05-07T07:15:51;21.80;73.40
2363;DHT22;64265;51.664;7.626;2023-05-07T07:18:18;21.90;73.40
2363;DHT22;64265;51.664;7.626;2023-05-07T07:20:45;21.90;73.50
2363;DHT22;64265;51.664;7.626;2023-05-07T07:23:13;21.80;73.20
2363;DHT22;64265;51.664;7.626;2023-05-07T07:25:40;21.80;73.90
2363;DHT22;64265;51.664;7.626;2023-05-07T07:28:07;21.70;72.90
2363;DHT22;64265;51.664;7.626;2023-05-07T07:30:33;21.80;73.10
2363;DHT22;64265;51.664;7.626;2023-05-07T07:33:00;21.80;73.10
2363;DHT22;64265;51.664;7.626;2023-05-07T07:35:28;21.70;72.90
2363;DHT22;64265;51.664;7.626;2023-05-07T07:37:55;21.80;73.10
2363;DHT22;64265;51.664;7.626;2023-05-07T07:40:23;21.80;73.10
2363;DHT22;64265;51.664;7.626;2023-05-07T07:42:50;21.80;73.10
2363;DHT22;64265;51.664;7.626;2023-05-07T07:45:17;21.80;73.10
2363;DHT22;64265;51.664;7.626;2023-05-07T07:47:44;21.80;72.90
2363;DHT22;64265;51.664;7.626;2023-05-07T07:50:11;21.80;72.90
2363;DHT22;64265;51.664;7.626;2023-05-07T07:52:38;21.80;72.90
2363;DHT22;64265;51.664;7.626;2023-05-07T07:55:06;21.80;72.90
2363;DHT22;64265;51.664;7.626;2023-05-07T07:57:34;21.80;72.80
2363;DHT22;64265;51.664;7.626;2023-05-07T08:00:01;21.80;73.80
2363;DHT22;64265;51.664;7.626;2023-05-07T08:02:27;21.80;72.80
2363;DHT22;64265;51.664;7.626;2023-05-07T08:04:54;21.80;72.80
2363;DHT22;64265;51.664;7.626;2023-05-07T08:07:21;21.80;72.80
2363;DHT22;64265;51.664;7.626;2023-05-07T08:09:48;21.80;72.80
2363;DHT22;64265;51.664;7.626;2023-05-07T08:12:15;21.80;72.70
2363;DHT22;64265;51.664;7.626;2023-05-07T08:14:43;21.80;72.90
2363;DHT22;64265;51.664;7.626;2023-05-07T08:17:10;21.80;73.90
2363;DHT22;64265;51.664;7.626;2023-05-07T08:19:36;21.90;75.10
2363;DHT22;64265;51.664;7.626;2023-05-07T08:22:03;21.80;75.10
2363;DHT22;64265;51.664;7.626;2023-05-07T08:24:31;21.90;75.50
2363;DHT22;64265;51.664;7.626;2023-05-07T08:26:57;21.80;75.10
2363;DHT22;64265;51.664;7.626;2023-05-07T08:29:24;21.90;75.50
2363;DHT22;64265;51.664;7.626;2023-05-07T08:31:52;21.90;75.40
2363;DHT22;64265;51.664;7.626;2023-05-07T08:34:19;21.90;75.50
2363;DHT22;64265;51.664;7.626;2023-05-07T08:36:46;21.90;75.00
2363;DHT22;64265;51.664;7.626;2023-05-07T08:39:14;21.90;74.70
2363;DHT22;64265;51.664;7.626;2023-05-07T08:41:44;21.90;74.40
2363;DHT22;64265;51.664;7.626;2023-05-07T08:44:12;21.90;74.00
2363;DHT22;64265;51.664;7.626;2023-05-07T08:46:39;21.90;74.50
2363;DHT22;64265;51.664;7.626;2023-05-07T08:49:08;21.90;74.30
2363;DHT22;64265;51.664;7.626;2023-05-07T08:51:35;21.90;74.30
2363;DHT22;64265;51.664;7.626;2023-05-07T08:54:03;22.00;74.30
2363;DHT22;64265;51.664;7.626;2023-05-07T08:56:30;21.90;74.00
2363;DHT22;64265;51.664;7.626;2023-05-07T08:58:56;22.00;74.10
2363;DHT22;64265;51.664;7.626;2023-05-07T09:01:24;22.00;74.10
2363;DHT22;64265;51.664;7.626;2023-05-07T09:03:51;22.00;74.00
2363;DHT22;64265;51.664;7.626;2023-05-07T09:06:20;22.00;73.90
2363;DHT22;64265;51.664;7.626;2023-05-07T09:08:50;22.00;73.90
2363;DHT22;64265;51.664;7.626;2023-05-07T09:11:20;22.00;73.70
2363;DHT22;64265;51.664;7.626;2023-05-07T09:13:47;22.00;74.50
2363;DHT22;64265;51.664;7.626;2023-05-07T09:16:15;22.00;73.60
2363;DHT22;64265;51.664;7.626;2023-05-07T09:18:42;22.00;73.80
2363;DHT22;64265;51.664;7.626;2023-05-07T09:21:10;22.00;74.80
2363;DHT22;64265;51.664;7.626;2023-05-07T09:23:38;22.00;75.20
2363;DHT22;64265;51.664;7.626;2023-05-07T09:26:06;22.00;75.00
2363;DHT22;64265;51.664;7.626;2023-05-07T09:28:38;22.00;75.30
2363;DHT22;64265;51.664;7.626;2023-05-07T09:31:05;22.00;75.40
2363;DHT22;64265;51.664;7.626;2023-05-07T09:33:32;22.00;75.60
2363;DHT22;64265;51.664;7.626;2023-05-07T09:35:59;21.90;75.40
2363;DHT22;64265;51.664;7.626;2023-05-07T09:38:28;22.00;75.70
2363;DHT22;64265;51.664;7.626;2023-05-07T09:41:04;21.90;75.40
2363;DHT22;64265;51.664;7.626;2023-05-07T09:43:34;22.00;75.50
2363;DHT22;64265;51.664;7.626;2023-05-07T09:46:03;22.00;75.40
2363;DHT22;64265;51.664;7.626;2023-05-07T09:48:32;22.00;75.60
2363;DHT22;64265;51.664;7.626;2023-05-07T09:51:02;22.00;75.70
2363;DHT22;64265;51.664;7.626;2023-05-07T09:53:33;22.10;75.70
2363;DHT22;64265;51.664;7.626;2023-05-07T09:56:02;22.10;75.80
2363;DHT22;64265;51.664;7.626;2023-05-07T09:58:30;22.00;75.90
2363;DHT22;64265;51.664;7.626;2023-05-07T10:00:57;22.10;75.40
2363;DHT22;64265;51.664;7.626;2023-05-07T10:03:26;22.10;75.50
2363;DHT22;64265;51.664;7.626;2023-05-07T10:05:55;22.10;75.70
2363;DHT22;64265;51.664;7.626;2023-05-07T10:08:22;22.10;75.70
2363;DHT22;64265;51.664;7.626;2023-05-07T10:10:49;22.20;75.80
2363;DHT22;64265;51.664;7.626;2023-05-07T10:13:18;22.20;75.80
2363;DHT22;64265;51.664;7.626;2023-05-07T10:15:45;22.20;75.90
2363;DHT22;64265;51.664;7.626;2023-05-07T10:18:14;22.30;76.00
2363;DHT22;64265;51.664;7.626;2023-05-07T10:20:43;22.30;76.10
2363;DHT22;64265;51.664;7.626;2023-05-07T10:23:15;22.30;76.10
2363;DHT22;64265;51.664;7.626;2023-05-07T10:25:44;22.30;76.00
2363;DHT22;64265;51.664;7.626;2023-05-07T10:28:12;22.40;76.00
2363;DHT22;64265;51.664;7.626;2023-05-07T10:30:51;22.40;76.10
2363;DHT22;64265;51.664;7.626;2023-05-07T10:33:24;22.40;76.20
2363;DHT22;64265;51.664;7.626;2023-05-07T10:35:57;22.50;76.30
2363;DHT22;64265;51.664;7.626;2023-05-07T10:38:24;22.50;76.40
2363;DHT22;64265;51.664;7.626;2023-05-07T10:40:51;22.50;76.10
2363;DHT22;64265;51.664;7.626;2023-05-07T10:43:18;22.60;76.40
2363;DHT22;64265;51.664;7.626;2023-05-07T10:46:09;22.60;76.30
2363;DHT22;64265;51.664;7.626;2023-05-07T10:49:11;22.70;76.30
2363;DHT22;64265;51.664;7.626;2023-05-07T10:51:38;22.70;76.40
2363;DHT22;64265;51.664;7.626;2023-05-07T10:54:21;22.70;77.00
2363;DHT22;64265;51.664;7.626;2023-05-07T10:56:49;22.70;77.30
2363;DHT22;64265;51.664;7.626;2023-05-07T10:59:34;22.60;76.80
2363;DHT22;64265;51.664;7.626;2023-05-07T11:02:06;22.60;77.20
2363;DHT22;64265;51.664;7.626;2023-05-07T11:04:36;22.60;77.20
2363;DHT22;64265;51.664;7.626;2023-05-07T11:07:26;22.60;77.30
2363;DHT22;64265;51.664;7.626;2023-05-07T11:10:04;22.70;77.50
2363;DHT22;64265;51.664;7.626;2023-05-07T11:12:53;22.70;77.10
2363;DHT22;64265;51.664;7.626;2023-05-07T11:15:50;22.70;77.00
2363;DHT22;64265;51.664;7.626;2023-05-07T11:18:17;22.70;77.20
2363;DHT22;64265;51.664;7.626;2023-05-07T11:20:51;22.70;76.80
2363;DHT22;64265;51.664;7.626;2023-05-07T11:23:56;22.70;76.70
2363;DHT22;64265;51.664;7.626;2023-05-07T11:26:27;22.80;76.70
2363;DHT22;64265;51.664;7.626;2023-05-07T11:28:54;22.70;77.40
2363;DHT22;64265;51.664;7.626;2023-05-07T11:31:24;22.80;76.60
2363;DHT22;64265;51.664;7.626;2023-05-07T11:33:52;22.80;76.60
2363;DHT22;64265;51.664;7.626;2023-05-07T11:36:21;22.80;76.60
2363;DHT22;64265;51.664;7.626;2023-05-07T11:38:48;22.80;76.40
2363;DHT22;64265;51.664;7.626;2023-05-07T11:41:16;22.80;76.10
2363;DHT22;64265;51.664;7.626;2023-05-07T11:43:58;22.80;76.40
2363;DHT22;64265;51.664;7.626;2023-05-07T11:46:25;22.80;77.00
2363;DHT22;64265;51.664;7.626;2023-05-07T11:48:52;22.80;76.60
2363;DHT22;64265;51.664;7.626;2023-05-07T11:51:21;22.90;76.50
2363;DHT22;64265;51.664;7.626;2023-05-07T11:53:49;22.90;76.50
2363;DHT22;64265;51.664;7.626;2023-05-07T11:56:17;22.90;76.60
2363;DHT22;64265;51.664;7.626;2023-05-07T11:58:46;22.90;76.40
2363;DHT22;64265;51.664;7.626;2023-05-07T12:01:13;22.90;76.40
2363;DHT22;64265;51.664;7.626;2023-05-07T12:03:42;22.90;76.20
2363;DHT22;64265;51.664;7.626;2023-05-07T12:06:09;22.90;76.30
2363;DHT22;64265;51.664;7.626;2023-05-07T12:08:39;23.00;76.50
2363;DHT22;64265;51.664;7.626;2023-05-07T12:11:10;23.00;76.70
2363;DHT22;64265;51.664;7.626;2023-05-07T12:13:38;23.00;76.70
2363;DHT22;64265;51.664;7.626;2023-05-07T12:16:06;23.00;76.40
2363;DHT22;64265;51.664;7.626;2023-05-07T12:18:35;23.00;76.70
2363;DHT22;64265;51.664;7.626;2023-05-07T12:21:02;23.00;76.70
2363;DHT22;64265;51.664;7.626;2023-05-07T12:23:30;23.00;76.60
2363;DHT22;64265;51.664;7.626;2023-05-07T12:25:59;23.10;76.70
2363;DHT22;64265;51.664;7.626;2023-05-07T12:28:26;23.10;76.90
2363;DHT22;64265;51.664;7.626;2023-05-07T12:30:53;23.10;77.00
2363;DHT22;64265;51.664;7.626;2023-05-07T12:33:26;23.10;76.80
2363;DHT22;64265;51.664;7.626;2023-05-07T12:35:54;23.10;76.80
2363;DHT22;64265;51.664;7.626;2023-05-07T12:38:22;23.20;77.40
2363;DHT22;64265;51.664;7.626;2023-05-07T12:40:50;23.20;77.10
2363;DHT22;64265;51.664;7.626;2023-05-07T12:43:19;23.20;77.10
2363;DHT22;64265;51.664;7.626;2023-05-07T12:45:48;23.20;77.10
2363;DHT22;64265;51.664;7.626;2023-05-07T12:48:15;23.20;77.00
2363;DHT22;64265;51.664;7.626;2023-05-07T12:50:42;23.20;76.90
2363;DHT22;64265;51.664;7.626;2023-05-07T12:53:10;23.20;76.90
2363;DHT22;64265;51.664;7.626;2023-05-07T12:55:41;23.20;77.00
2363;DHT22;64265;51.664;7.626;2023-05-07T12:58:15;23.20;77.10
2363;DHT22;64265;51.664;7.626;2023-05-07T13:00:44;23.20;76.90
2363;DHT22;64265;51.664;7.626;2023-05-07T13:03:11;23.20;76.70
2363;DHT22;64265;51.664;7.626;2023-05-07T13:05:38;23.20;76.50
2363;DHT22;64265;51.664;7.626;2023-05-07T13:08:05;23.20;76.70
2363;DHT22;64265;51.664;7.626;2023-05-07T13:10:32;23.20;76.80
2363;DHT22;64265;51.664;7.626;2023-05-07T13:12:59;23.20;76.80
2363;DHT22;64265;51.664;7.626;2023-05-07T13:15:26;23.20;76.70
2363;DHT22;64265;51.664;7.626;2023-05-07T13:17:54;23.20;76.70
2363;DHT22;64265;51.664;7.626;2023-05-07T13:20:21;23.10;76.60
2363;DHT22;64265;51.664;7.626;2023-05-07T13:22:47;23.20;76.60
2363;DHT22;64265;51.664;7.626;2023-05-07T13:25:14;23.20;76.60
2363;DHT22;64265;51.664;7.626;2023-05-07T13:27:41;23.20;76.50
2363;DHT22;64265;51.664;7.626;2023-05-07T13:30:08;23.10;76.50
2363;DHT22;64265;51.664;7.626;2023-05-07T13:32:34;23.10;76.50
2363;DHT22;64265;51.664;7.626;2023-05-07T13:35:03;23.10;76.50
2363;DHT22;64265;51.664;7.626;2023-05-07T13:37:30;23.10;76.50
2363;DHT22;64265;51.664;7.626;2023-05-07T13:39:56;23.10;76.30
2363;DHT22;64265;51.664;7.626;2023-05-07T13:42:23;23.20;76.20
2363;DHT22;64265;51.664;7.626;2023-05-07T13:44:50;23.30;76.30
2363;DHT22;64265;51.664;7.626;2023-05-07T13:47:16;23.30;76.10
2363;DHT22;64265;51.664;7.626;2023-05-07T13:49:43;23.30;76.10
2363;DHT22;64265;51.664;7.626;2023-05-07T13:52:11;23.40;76.10
2363;DHT22;64265;51.664;7.626;2023-05-07T13:54:38;23.40;76.90
2363;DHT22;64265;51.664;7.626;2023-05-07T13:57:05;23.40;76.00
2363;DHT22;64265;51.664;7.626;2023-05-07T13:59:31;23.40;76.00
2363;DHT22;64265;51.664;7.626;2023-05-07T14:01:58;23.40;75.90
2363;DHT22;64265;51.664;7.626;2023-05-07T14:04:25;23.50;76.00
2363;DHT22;64265;51.664;7.626;2023-05-07T14:06:51;23.50;75.90
2363;DHT22;64265;51.664;7.626;2023-05-07T14:09:19;23.50;75.80
2363;DHT22;64265;51.664;7.626;2023-05-07T14:11:46;23.50;75.90
2363;DHT22;64265;51.664;7.626;2023-05-07T14:14:16;23.50;75.70
2363;DHT22;64265;51.664;7.626;2023-05-07T14:16:43;23.50;75.60
2363;DHT22;64265;51.664;7.626;2023-05-07T14:19:10;23.50;75.70
2363;DHT22;64265;51.664;7.626;2023-05-07T14:21:36;23.50;75.60
2363;DHT22;64265;51.664;7.626;2023-05-07T14:24:03;23.50;75.50
2363;DHT22;64265;51.664;7.626;2023-05-07T14:26:32;23.60;75.60
2363;DHT22;64265;51.664;7.626;2023-05-07T14:28:59;23.60;75.60
2363;DHT22;64265;51.664;7.626;2023-05-07T14:31:25;23.60;75.50
2363;DHT22;64265;51.664;7.626;2023-05-07T14:33:52;23.60;75.40
2363;DHT22;64265;51.664;7.626;2023-05-07T14:36:19;23.60;75.60
2363;DHT22;64265;51.664;7.626;2023-05-07T14:38:48;23.60;75.40
2363;DHT22;64265;51.664;7.626;2023-05-07T14:41:15;23.60;75.30
2363;DHT22;64265;51.664;7.626;2023-05-07T14:43:43;23.60;75.30
2363;DHT22;64265;51.664;7.626;2023-05-07T14:46:15;23.60;75.30
2363;DHT22;64265;51.664;7.626;2023-05-07T14:48:42;23.60;75.30
2363;DHT22;64265;51.664;7.626;2023-05-07T14:51:09;23.70;75.50
2363;DHT22;64265;51.664;7.626;2023-05-07T14:53:36;23.70;75.40
2363;DHT22;64265;51.664;7.626;2023-05-07T14:56:03;23.70;75.40
2363;DHT22;64265;51.664;7.626;2023-05-07T14:58:30;23.70;75.40
2363;DHT22;64265;51.664;7.626;2023-05-07T15:00:58;23.70;75.40
2363;DHT22;64265;51.664;7.626;2023-05-07T15:03:25;23.70;75.40
2363;DHT22;64265;51.664;7.626;2023-05-07T15:05:52;23.70;75.30
2363;DHT22;64265;51.664;7.626;2023-05-07T15:13:30;23.50;74.70
2363;DHT22;64265;51.664;7.626;2023-05-07T15:15:56;23.50;74.80
2363;DHT22;64265;51.664;7.626;2023-05-07T15:18:24;23.50;74.70
2363;DHT22;64265;51.664;7.626;2023-05-07T15:20:51;23.50;74.80
2363;DHT22;64265;51.664;7.626;2023-05-07T15:23:18;23.50;74.80
2363;DHT22;64265;51.664;7.626;2023-05-07T15:25:45;23.50;74.60
2363;DHT22;64265;51.664;7.626;2023-05-07T15:28:11;23.60;74.60
2363;DHT22;64265;51.664;7.626;2023-05-07T15:30:38;23.60;74.70
2363;DHT22;64265;51.664;7.626;2023-05-07T15:33:05;23.60;74.50
2363;DHT22;64265;51.664;7.626;2023-05-07T15:35:39;23.60;74.40
2363;DHT22;64265;51.664;7.626;2023-05-07T15:38:05;23.60;74.50
2363;DHT22;64265;51.664;7.626;2023-05-07T15:40:34;23.60;74.50
2363;DHT22;64265;51.664;7.626;2023-05-07T15:43:03;23.60;74.50
2363;DHT22;64265;51.664;7.626;2023-05-07T15:45:30;23.60;74.00
2363;DHT22;64265;51.664;7.626;2023-05-07T15:47:56;23.50;73.90
2363;DHT22;64265;51.664;7.626;2023-05-07T15:50:23;23.50;74.00
2363;DHT22;64265;51.664;7.626;2023-05-07T15:52:51;23.50;73.90
2363;DHT22;64265;51.664;7.626;2023-05-07T15:55:18;23.40;73.80